createdAt,value
2022-08-14T00:02:01.241Z,51.49
2022-08-14T00:04:41.820Z,51.59
2022-08-14T00:07:10.866Z,52.71
2022-08-14T00:09:55.255Z,51.81
2022-08-14T00:12:33.615Z,52.33
2022-08-14T00:15:16.393Z,54.04
2022-08-14T00:17:47.241Z,53.85
2022-08-14T00:20:23.461Z,53.47
2022-08-14T00:22:57.059Z,53.31
2022-08-14T00:25:30.569Z,52.71
2022-08-14T00:28:10.659Z,53.11
2022-08-14T00:30:43.078Z,53.11
2022-08-14T00:33:16.072Z,53.26
2022-08-14T00:36:39.508Z,52.62
2022-08-14T00:38:35.174Z,53.33
2022-08-14T00:41:04.955Z,54.05
2022-08-14T00:43:32.731Z,54.00
2022-08-14T00:46:08.159Z,53.23
2022-08-14T00:48:51.112Z,53.28
2022-08-14T00:51:21.905Z,53.60
2022-08-14T00:53:50.397Z,53.46
2022-08-14T00:56:21.480Z,54.32
2022-08-14T00:58:49.280Z,53.72
2022-08-14T01:01:19.292Z,53.87
2022-08-14T01:03:52.841Z,53.43
2022-08-14T01:06:21.361Z,53.00
2022-08-14T01:08:52.024Z,53.97
2022-08-14T01:11:35.480Z,54.17
2022-08-14T01:14:04.990Z,54.07
2022-08-14T01:16:53.097Z,54.37
2022-08-14T01:19:41.286Z,54.30
2022-08-14T01:22:12.531Z,55.12
2022-08-14T01:24:43.409Z,55.44
2022-08-14T01:27:17.780Z,54.86
2022-08-14T01:30:03.180Z,55.09
2022-08-14T01:32:33.558Z,54.45
2022-08-14T01:35:18.855Z,55.38
2022-08-14T01:37:58.366Z,54.79
2022-08-14T01:40:36.401Z,54.57
2022-08-14T01:43:18.538Z,54.55
2022-08-14T01:45:57.590Z,54.34
2022-08-14T01:48:37.057Z,54.26
2022-08-14T01:51:06.154Z,54.71
2022-08-14T01:53:48.082Z,54.74
2022-08-14T01:56:30.411Z,55.08
2022-08-14T01:58:58.399Z,54.76
2022-08-14T02:01:30.984Z,54.70
2022-08-14T02:03:59.814Z,54.62
2022-08-14T02:06:33.174Z,55.23
2022-08-14T02:09:04.312Z,55.40
2022-08-14T02:11:46.719Z,55.33
2022-08-14T02:14:31.256Z,55.49
2022-08-14T02:16:59.395Z,55.38
2022-08-14T02:19:28.037Z,55.26
2022-08-14T02:22:03.006Z,55.59
2022-08-14T02:24:39.697Z,55.94
2022-08-14T02:28:21.906Z,55.73
2022-08-14T02:30:02.187Z,55.11
2022-08-14T02:32:36.393Z,55.05
2022-08-14T02:35:13.735Z,56.27
2022-08-14T02:37:45.731Z,55.92
2022-08-14T02:40:20.964Z,55.28
2022-08-14T02:43:00.766Z,55.56
2022-08-14T02:45:38.747Z,55.41
2022-08-14T02:49:02.063Z,55.03
2022-08-14T02:51:00.830Z,56.04
2022-08-14T02:53:31.269Z,55.65
2022-08-14T02:56:29.723Z,55.47
2022-08-14T02:58:55.783Z,55.93
2022-08-14T03:01:31.164Z,55.92
2022-08-14T03:04:15.175Z,55.49
2022-08-14T03:06:57.606Z,55.78
2022-08-14T03:09:42.164Z,56.15
2022-08-14T03:12:31.781Z,56.97
2022-08-14T03:15:03.175Z,56.77
2022-08-14T03:17:41.065Z,56.80
2022-08-14T03:20:19.186Z,56.51
2022-08-14T03:22:52.602Z,56.26
2022-08-14T03:25:22.533Z,56.62
2022-08-14T03:27:58.779Z,56.25
2022-08-14T03:30:39.084Z,56.63
2022-08-14T03:33:10.881Z,56.34
2022-08-14T03:36:05.708Z,57.32
2022-08-14T03:39:12.573Z,57.25
2022-08-14T03:41:32.987Z,56.85
2022-08-14T03:45:19.260Z,57.02
2022-08-14T03:46:54.697Z,57.21
2022-08-14T03:49:28.595Z,57.05
2022-08-14T03:51:58.367Z,56.82
2022-08-14T03:54:29.271Z,57.00
2022-08-14T03:57:02.774Z,57.02
2022-08-14T03:59:34.189Z,56.98
2022-08-14T04:02:04.834Z,57.33
2022-08-14T04:04:53.471Z,57.32
2022-08-14T04:07:20.834Z,58.11
2022-08-14T04:09:49.625Z,58.21
2022-08-14T04:12:26.367Z,59.25
2022-08-14T04:14:55.483Z,59.33
2022-08-14T04:17:23.808Z,59.78
2022-08-14T04:19:52.422Z,59.86
2022-08-14T04:22:22.530Z,59.36
2022-08-14T04:24:50.947Z,58.39
2022-08-14T04:27:18.444Z,58.29
2022-08-14T04:29:45.689Z,58.39
2022-08-14T04:33:10.489Z,57.64
2022-08-14T04:35:11.078Z,57.68
2022-08-14T04:37:57.613Z,57.30
2022-08-14T04:40:43.775Z,57.39
2022-08-14T04:43:38.977Z,56.86
2022-08-14T04:46:09.529Z,56.68
2022-08-14T04:48:43.494Z,55.73
2022-08-14T04:51:12.881Z,55.56
2022-08-14T04:53:43.719Z,55.49
2022-08-14T04:56:31.086Z,54.91
2022-08-14T04:59:10.230Z,55.06
2022-08-14T05:01:48.969Z,54.57
2022-08-14T05:04:21.072Z,54.21
2022-08-14T05:06:53.653Z,53.72
2022-08-14T05:09:23.953Z,53.34
2022-08-14T05:11:53.163Z,53.46
2022-08-14T05:14:45.720Z,53.34
2022-08-14T05:17:11.498Z,52.79
2022-08-14T05:19:45.072Z,52.62
2022-08-14T05:22:28.696Z,52.79
2022-08-14T05:24:56.135Z,52.05
2022-08-14T05:27:25.544Z,51.72
2022-08-14T05:30:00.535Z,52.04
2022-08-14T05:32:28.657Z,51.64
2022-08-14T05:35:00.368Z,51.09
2022-08-14T05:37:30.984Z,51.10
2022-08-14T05:40:02.191Z,51.34
2022-08-14T05:42:34.250Z,51.07
2022-08-14T05:45:04.448Z,50.44
2022-08-14T05:47:34.139Z,50.15
2022-08-14T05:50:17.556Z,49.47
2022-08-14T05:52:48.486Z,49.33
2022-08-14T05:55:21.784Z,48.43
2022-08-14T05:57:54.510Z,49.47
2022-08-14T06:00:29.983Z,48.54
2022-08-14T06:03:07.022Z,49.75
2022-08-14T06:05:38.875Z,49.39
2022-08-14T06:08:35.856Z,49.62
2022-08-14T06:11:06.290Z,49.15
2022-08-14T06:13:45.231Z,48.43
2022-08-14T06:16:18.916Z,47.68
2022-08-14T06:18:52.760Z,47.18
2022-08-14T06:21:22.145Z,46.61
2022-08-14T06:23:59.555Z,47.25
2022-08-14T06:26:30.230Z,46.57
2022-08-14T06:29:03.468Z,45.97
2022-08-14T06:31:32.046Z,45.18
2022-08-14T06:35:11.362Z,45.42
2022-08-14T06:36:48.705Z,44.42
2022-08-14T06:39:18.530Z,45.09
2022-08-14T06:42:05.955Z,45.86
2022-08-14T06:44:43.142Z,45.13
2022-08-14T06:47:12.785Z,45.27
2022-08-14T06:49:54.576Z,44.67
2022-08-14T06:52:29.697Z,45.64
2022-08-14T06:57:41.317Z,44.64
2022-08-14T07:00:18.205Z,44.36
2022-08-14T07:03:13.326Z,43.45
2022-08-14T07:05:55.678Z,44.29
2022-08-14T07:08:31.518Z,43.28
2022-08-14T07:13:48.778Z,43.70
2022-08-14T07:18:55.274Z,43.73
2022-08-14T07:21:24.370Z,43.14
2022-08-14T07:23:52.633Z,44.06
2022-08-14T07:26:22.359Z,42.84
2022-08-14T07:28:52.013Z,42.92
2022-08-14T07:31:19.787Z,43.70
2022-08-14T07:33:54.896Z,42.69
2022-08-14T07:36:27.786Z,43.45
2022-08-14T07:39:12.440Z,42.09
2022-08-14T07:41:44.549Z,41.29
2022-08-14T07:44:32.366Z,42.63
2022-08-14T07:47:05.492Z,41.23
2022-08-14T07:49:38.373Z,41.00
2022-08-14T07:52:15.355Z,42.06
2022-08-14T07:54:56.312Z,41.39
2022-08-14T07:57:28.671Z,40.18
2022-08-14T07:59:59.326Z,40.20
2022-08-14T08:02:44.925Z,39.99
2022-08-14T08:05:22.340Z,40.30
2022-08-14T08:07:53.396Z,39.74
2022-08-14T08:11:01.990Z,39.48
2022-08-14T08:13:29.321Z,39.10
2022-08-14T08:16:05.221Z,39.71
2022-08-14T08:18:36.756Z,38.51
2022-08-14T08:21:11.519Z,38.67
2022-08-14T08:23:51.104Z,38.91
2022-08-14T08:26:22.369Z,38.20
2022-08-14T08:28:57.992Z,39.93
2022-08-14T08:31:37.381Z,37.43
2022-08-14T08:36:48.505Z,36.52
2022-08-14T08:39:22.325Z,37.25
2022-08-14T08:41:53.502Z,38.67
2022-08-14T08:44:34.487Z,37.55
2022-08-14T08:47:08.550Z,36.91
2022-08-14T08:49:48.678Z,35.55
2022-08-14T08:52:33.149Z,38.06
2022-08-14T08:55:04.609Z,37.33
2022-08-14T09:00:25.698Z,37.73
2022-08-14T09:02:59.333Z,38.44
2022-08-14T09:05:29.475Z,36.17
2022-08-14T09:08:30.599Z,36.59
2022-08-14T09:11:21.015Z,35.71
2022-08-14T09:13:51.716Z,36.24
2022-08-14T09:16:26.421Z,35.12
2022-08-14T09:18:56.755Z,34.18
2022-08-14T09:21:36.579Z,33.72
2022-08-14T09:26:44.049Z,34.90
2022-08-14T09:29:31.712Z,34.86
2022-08-14T09:32:04.498Z,32.76
2022-08-14T09:35:10.606Z,32.76
2022-08-14T09:37:49.988Z,31.83
2022-08-14T09:40:34.400Z,32.01
2022-08-14T09:43:07.202Z,31.77
2022-08-14T09:45:53.428Z,31.16
2022-08-14T09:48:32.617Z,30.16
2022-08-14T09:54:18.102Z,28.36
2022-08-14T09:56:46.548Z,29.45
2022-08-14T09:59:33.697Z,29.42
2022-08-14T10:02:22.256Z,29.04
2022-08-14T10:05:21.778Z,28.25
2022-08-14T10:07:53.827Z,29.11
2022-08-14T10:10:41.622Z,30.66
2022-08-14T10:13:23.745Z,28.49
2022-08-14T10:15:51.937Z,26.65
2022-08-14T10:18:21.553Z,25.84
2022-08-14T10:20:55.400Z,28.21
2022-08-14T10:23:25.018Z,24.80
2022-08-14T10:26:00.349Z,25.51
2022-08-14T10:29:18.071Z,24.98
2022-08-14T10:31:45.446Z,24.32
2022-08-14T10:34:19.650Z,26.29
2022-08-14T10:37:02.535Z,25.81
2022-08-14T10:39:30.618Z,26.23
2022-08-14T10:42:18.318Z,24.66
2022-08-14T10:44:52.368Z,23.98
2022-08-14T10:48:07.732Z,26.39
2022-08-14T10:50:33.133Z,25.18
2022-08-14T10:53:07.851Z,25.08
2022-08-14T10:55:45.552Z,23.76
2022-08-14T10:58:17.480Z,26.32
2022-08-14T11:00:57.112Z,24.48
2022-08-14T11:03:56.071Z,25.14
2022-08-14T11:09:16.973Z,25.47
2022-08-14T11:12:40.168Z,25.25
2022-08-14T11:14:59.162Z,25.79
2022-08-14T11:17:36.278Z,21.64
2022-08-14T11:20:13.763Z,23.79
2022-08-14T11:22:52.674Z,22.98
2022-08-14T11:25:43.949Z,23.70
2022-08-14T11:28:21.577Z,24.53
2022-08-14T11:34:01.601Z,26.90
2022-08-14T11:37:03.806Z,23.58
2022-08-14T11:39:34.441Z,22.40
2022-08-14T11:42:58.832Z,22.75
2022-08-14T11:45:17.098Z,21.11
2022-08-14T11:48:12.668Z,21.61
2022-08-14T11:50:38.523Z,22.41
2022-08-14T11:53:08.522Z,22.59
2022-08-14T11:55:39.413Z,23.54
2022-08-14T11:58:15.561Z,23.32
2022-08-14T12:00:53.954Z,22.11
2022-08-14T12:03:46.042Z,20.80
2022-08-14T12:06:35.943Z,21.54
2022-08-14T12:11:51.612Z,22.10
2022-08-14T12:14:30.644Z,21.47
2022-08-14T12:17:12.015Z,22.15
2022-08-14T12:19:51.581Z,20.81
2022-08-14T12:27:53.536Z,20.78
2022-08-14T12:30:34.408Z,20.07
2022-08-14T12:33:12.663Z,21.59
2022-08-14T12:35:56.249Z,21.08
2022-08-14T12:38:33.757Z,21.33
2022-08-14T12:41:09.934Z,21.76
2022-08-14T12:46:27.411Z,20.35
2022-08-14T12:49:25.995Z,20.30
2022-08-14T12:52:02.382Z,21.05
2022-08-14T12:54:43.561Z,19.53
2022-08-14T12:57:42.275Z,21.70
2022-08-14T13:00:22.700Z,19.80
2022-08-14T13:03:01.699Z,19.85
2022-08-14T13:05:33.828Z,19.58
2022-08-14T13:08:05.893Z,19.83
2022-08-14T13:10:56.103Z,19.62
2022-08-14T13:13:38.419Z,19.61
2022-08-14T13:16:20.875Z,19.84
2022-08-14T13:19:02.236Z,19.59
2022-08-14T13:22:05.124Z,20.21
2022-08-14T13:24:28.419Z,20.23
2022-08-14T13:27:11.041Z,21.92
2022-08-14T13:29:53.014Z,21.78
2022-08-14T13:35:16.268Z,22.88
2022-08-14T13:37:45.283Z,22.46
2022-08-14T13:40:26.468Z,23.17
2022-08-14T13:42:57.705Z,22.59
2022-08-14T13:45:34.079Z,22.61
2022-08-14T13:48:27.705Z,22.50
2022-08-14T13:51:11.725Z,22.33
2022-08-14T13:56:36.643Z,22.84
2022-08-14T13:59:07.533Z,23.21
2022-08-14T14:01:42.830Z,23.38
2022-08-14T14:04:18.965Z,23.06
2022-08-14T14:06:53.735Z,23.28
2022-08-14T14:09:43.822Z,22.99
2022-08-14T14:12:37.968Z,24.98
2022-08-14T14:18:04.430Z,25.06
2022-08-14T14:20:54.910Z,23.73
2022-08-14T14:23:38.487Z,23.08
2022-08-14T14:26:20.026Z,23.58
2022-08-14T14:28:59.460Z,24.54
2022-08-14T14:31:36.649Z,24.03
2022-08-14T14:34:29.101Z,24.27
2022-08-14T14:37:04.551Z,22.83
2022-08-14T14:39:37.505Z,22.49
2022-08-14T14:42:13.573Z,24.87
2022-08-14T14:44:56.642Z,22.32
2022-08-14T14:47:27.660Z,22.06
2022-08-14T14:50:03.678Z,21.22
2022-08-14T14:52:36.980Z,22.80
2022-08-14T14:55:16.986Z,23.37
2022-08-14T14:57:56.357Z,21.41
2022-08-14T15:03:14.064Z,20.73
2022-08-14T15:05:53.458Z,21.86
2022-08-14T15:08:26.827Z,21.16
2022-08-14T15:11:13.555Z,20.74
2022-08-14T15:16:27.175Z,21.13
2022-08-14T15:18:59.478Z,21.17
2022-08-14T15:21:37.674Z,20.01
2022-08-14T15:24:09.972Z,20.77
2022-08-14T15:26:46.594Z,20.48
2022-08-14T15:34:48.837Z,20.39
2022-08-14T15:37:23.274Z,20.88
2022-08-14T15:39:55.553Z,20.31
2022-08-14T15:42:25.735Z,19.77
2022-08-14T15:45:02.407Z,19.49
2022-08-14T15:47:41.599Z,19.47
2022-08-14T15:50:17.501Z,21.79
2022-08-14T15:52:48.204Z,20.63
2022-08-14T15:55:25.912Z,22.99
2022-08-14T15:58:03.481Z,20.50
2022-08-14T16:00:53.631Z,21.02
2022-08-14T16:03:25.345Z,22.22
2022-08-14T16:08:50.108Z,20.64
2022-08-14T16:11:25.928Z,20.84
2022-08-14T16:14:06.571Z,22.31
2022-08-14T16:16:50.220Z,20.49
2022-08-14T16:19:27.488Z,21.09
2022-08-14T16:22:01.931Z,20.99
2022-08-14T16:25:02.530Z,21.12
2022-08-14T16:27:34.187Z,21.57
2022-08-14T16:30:20.592Z,22.56
2022-08-14T16:33:01.976Z,21.50
2022-08-14T16:38:44.679Z,22.74
2022-08-14T16:44:31.694Z,23.28
2022-08-14T16:47:09.695Z,25.80
2022-08-14T16:50:04.715Z,26.52
2022-08-14T16:52:44.456Z,27.07
2022-08-14T16:55:17.878Z,27.53
2022-08-14T16:57:50.022Z,27.57
2022-08-14T17:00:29.612Z,27.95
2022-08-14T17:03:08.587Z,28.86
2022-08-14T17:05:43.116Z,29.05
2022-08-14T17:08:41.614Z,29.23
2022-08-14T17:11:04.715Z,29.74
2022-08-14T17:14:00.706Z,28.90
2022-08-14T17:19:31.307Z,29.52
2022-08-14T17:22:14.025Z,29.30
2022-08-14T17:24:57.850Z,30.29
2022-08-14T17:27:31.878Z,29.88
2022-08-14T17:30:32.614Z,30.17
2022-08-14T17:33:05.210Z,30.09
2022-08-14T17:35:57.292Z,31.22
2022-08-14T17:44:11.541Z,32.20
2022-08-14T17:46:55.291Z,31.80
2022-08-14T17:49:37.417Z,31.89
2022-08-14T17:52:36.382Z,31.78
2022-08-14T17:55:12.500Z,32.16
2022-08-14T17:58:20.565Z,33.19
2022-08-14T18:01:05.696Z,33.13
2022-08-14T18:03:44.796Z,33.15
2022-08-14T18:06:40.177Z,33.28
2022-08-14T18:09:26.576Z,33.89
2022-08-14T18:11:58.637Z,34.56
2022-08-14T18:14:48.875Z,34.18
2022-08-14T18:17:23.811Z,34.29
2022-08-14T18:22:44.661Z,34.18
2022-08-14T18:25:26.379Z,34.25
2022-08-14T18:28:01.554Z,34.47
2022-08-14T18:30:58.884Z,34.33
2022-08-14T18:39:23.624Z,35.75
2022-08-14T18:46:07.532Z,36.54
2022-08-14T18:49:15.154Z,36.49
2022-08-14T18:52:19.007Z,37.02
2022-08-14T18:58:20.784Z,37.63
2022-08-14T19:01:02.210Z,37.66
2022-08-14T19:03:43.600Z,37.62
2022-08-14T19:06:19.490Z,37.63
2022-08-14T19:11:32.745Z,38.96
2022-08-14T19:14:06.602Z,38.86
2022-08-14T19:19:25.838Z,39.15
2022-08-14T19:22:01.553Z,39.67
2022-08-14T19:24:50.173Z,39.84
2022-08-14T19:33:08.728Z,40.19
2022-08-14T19:36:00.447Z,40.54
2022-08-14T19:38:47.749Z,40.82
2022-08-14T19:41:36.564Z,40.56
2022-08-14T19:52:26.787Z,41.27
2022-08-14T19:55:10.572Z,41.45
2022-08-14T19:57:57.906Z,41.53
2022-08-14T20:00:30.978Z,41.56
2022-08-14T20:03:14.228Z,41.54
2022-08-14T20:05:59.717Z,41.96
2022-08-14T20:09:05.321Z,42.12
2022-08-14T20:12:00.575Z,42.02
2022-08-14T20:14:29.939Z,42.61
2022-08-14T20:17:14.589Z,42.35
2022-08-14T20:19:51.942Z,42.29
2022-08-14T20:22:37.018Z,42.85
2022-08-14T20:25:23.218Z,42.49
2022-08-14T20:28:29.979Z,43.00
2022-08-14T20:34:19.080Z,43.86
2022-08-14T20:37:04.553Z,44.35
2022-08-14T20:39:40.096Z,44.15
2022-08-14T20:42:32.174Z,43.90
2022-08-14T20:45:24.821Z,44.05
2022-08-14T20:50:44.736Z,44.22
2022-08-14T20:53:27.606Z,44.06
2022-08-14T20:56:33.136Z,44.51
2022-08-14T20:59:24.573Z,44.06
2022-08-14T21:02:26.961Z,44.16
2022-08-14T21:04:59.203Z,44.60
2022-08-14T21:07:35.234Z,45.71
2022-08-14T21:10:36.296Z,44.94
2022-08-14T21:13:26.442Z,44.57
2022-08-14T21:15:56.620Z,45.10
2022-08-14T21:18:34.701Z,45.02
2022-08-14T21:21:09.999Z,45.64
2022-08-14T21:23:54.157Z,46.24
2022-08-14T21:26:51.163Z,45.80
2022-08-14T21:29:16.573Z,45.77
2022-08-14T21:31:55.992Z,46.16
2022-08-14T21:34:32.596Z,46.84
2022-08-14T21:37:08.813Z,46.65
2022-08-14T21:39:38.719Z,46.28
2022-08-14T21:42:06.848Z,46.45
2022-08-14T21:44:43.649Z,46.44
2022-08-14T21:47:16.098Z,46.26
2022-08-14T21:49:46.383Z,46.34
2022-08-14T21:52:50.560Z,46.21
2022-08-14T21:55:12.257Z,46.47
2022-08-14T21:58:38.371Z,46.72
2022-08-14T22:00:42.004Z,46.70
2022-08-14T22:03:17.233Z,46.29
2022-08-14T22:05:49.788Z,46.95
2022-08-14T22:08:19.512Z,46.92
2022-08-14T22:10:51.417Z,46.95
2022-08-14T22:13:21.235Z,47.14
2022-08-14T22:15:56.713Z,47.48
2022-08-14T22:18:32.215Z,47.80
2022-08-14T22:21:05.812Z,47.50
2022-08-14T22:23:35.724Z,47.63
2022-08-14T22:26:03.492Z,47.60
2022-08-14T22:28:33.410Z,47.48
2022-08-14T22:31:03.690Z,47.52
2022-08-14T22:33:38.731Z,47.54
2022-08-14T22:36:33.843Z,47.43
2022-08-14T22:39:02.055Z,47.97
2022-08-14T22:41:36.514Z,47.71
2022-08-14T22:44:12.563Z,47.48
2022-08-14T22:46:43.149Z,47.65
2022-08-14T22:49:16.559Z,47.97
2022-08-14T22:52:02.698Z,48.19
2022-08-14T22:54:53.830Z,47.92
2022-08-14T22:57:22.546Z,48.07
2022-08-14T22:59:50.282Z,48.02
2022-08-14T23:02:30.233Z,47.95
2022-08-14T23:04:59.074Z,48.57
2022-08-14T23:08:58.699Z,48.73
2022-08-14T23:10:31.715Z,48.86
2022-08-14T23:13:02.152Z,48.99
2022-08-14T23:15:30.665Z,49.08
2022-08-14T23:17:58.882Z,49.13
2022-08-14T23:20:29.332Z,49.05
2022-08-14T23:22:57.853Z,48.99
2022-08-14T23:25:57.178Z,49.25
2022-08-14T23:28:34.820Z,49.21
2022-08-14T23:31:08.491Z,49.16
2022-08-14T23:33:42.040Z,49.77
2022-08-14T23:36:31.410Z,49.87
2022-08-14T23:39:07.030Z,50.16
2022-08-14T23:41:46.944Z,49.81
2022-08-14T23:44:23.495Z,50.01
2022-08-14T23:47:03.365Z,50.01
2022-08-14T23:50:01.430Z,49.96
2022-08-14T23:52:50.781Z,50.59
2022-08-14T23:55:27.850Z,51.05
2022-08-14T23:57:57.874Z,51.16
